<?xml version='1.0' encoding='UTF-8'?><gpx version="1.1" creator="JPX - https://github.com/jenetics/jpx" xmlns="http://www.topografix.com/GPX/1/1"><trk><trkseg><trkpt lat="48.0325347" lon="17.685495"><ele>109.2</ele><time>2026-05-02T16:04:40.065Z</time></trkpt><trkpt lat="48.032438" lon="17.6854709"><ele>109.4</ele><time>2026-05-02T16:04:41.064Z</time></trkpt><trkpt lat="48.0323375" lon="17.6854429"><ele>109.6</ele><time>2026-05-02T16:04:42.064Z</time></trkpt><trkpt lat="48.0322315" lon="17.6854218"><ele>109.8</ele><time>2026-05-02T16:04:43.064Z</time></trkpt><trkpt lat="48.0321186" lon="17.6854209"><ele>110.0</ele><time>2026-05-02T16:04:44.065Z</time></trkpt><trkpt lat="48.0320121" lon="17.6854347"><ele>110.0</ele><time>2026-05-02T16:04:45.064Z</time></trkpt><trkpt lat="48.0319134" lon="17.6854418"><ele>110.0</ele><time>2026-05-02T16:04:46.065Z</time></trkpt><trkpt lat="48.0318151" lon="17.6854434"><ele>110.0</ele><time>2026-05-02T16:04:47.065Z</time></trkpt><trkpt lat="48.0317174" lon="17.6854471"><ele>110.0</ele><time>2026-05-02T16:04:48.064Z</time></trkpt><trkpt lat="48.0316128" lon="17.6854485"><ele>110.0</ele><time>2026-05-02T16:04:49.064Z</time></trkpt><trkpt lat="48.0315066" lon="17.6854579"><ele>110.5</ele><time>2026-05-02T16:04:50.065Z</time></trkpt><trkpt lat="48.0313947" lon="17.6854694"><ele>111.0</ele><time>2026-05-02T16:04:51.064Z</time></trkpt><trkpt lat="48.0312763" lon="17.6854761"><ele>111.5</ele><time>2026-05-02T16:04:52.064Z</time></trkpt><trkpt lat="48.0311498" lon="17.6854825"><ele>112.0</ele><time>2026-05-02T16:04:53.065Z</time></trkpt><trkpt lat="48.0310202" lon="17.685495"><ele>112.0</ele><time>2026-05-02T16:04:54.064Z</time></trkpt><trkpt lat="48.0308776" lon="17.6855021"><ele>112.0</ele><time>2026-05-02T16:04:55.064Z</time></trkpt><trkpt lat="48.0307254" lon="17.6855263"><ele>112.0</ele><time>2026-05-02T16:04:56.065Z</time></trkpt><trkpt lat="48.0305772" lon="17.6855434"><ele>112.0</ele><time>2026-05-02T16:04:57.064Z</time></trkpt><trkpt lat="48.0304445" lon="17.6855575"><ele>111.83333333333334</ele><time>2026-05-02T16:04:58.065Z</time></trkpt><trkpt lat="48.0303302" lon="17.6855717"><ele>111.66666666666667</ele><time>2026-05-02T16:04:59.064Z</time></trkpt><trkpt lat="48.0302243" lon="17.6855742"><ele>111.5</ele><time>2026-05-02T16:05:00.064Z</time></trkpt><trkpt lat="48.0301391" lon="17.6855736"><ele>111.33333333333334</ele><time>2026-05-02T16:05:01.065Z</time></trkpt><trkpt lat="48.030064" lon="17.6855724"><ele>111.16666666666667</ele><time>2026-05-02T16:05:02.065Z</time></trkpt><trkpt lat="48.0299994" lon="17.6855719"><ele>111.0</ele><time>2026-05-02T16:05:03.065Z</time></trkpt><trkpt lat="48.0299201" lon="17.6855696"><ele>110.83333333333333</ele><time>2026-05-02T16:05:05.064Z</time></trkpt><trkpt lat="48.0298538" lon="17.6855831"><ele>110.66666666666666</ele><time>2026-05-02T16:05:08.064Z</time></trkpt><trkpt lat="48.0297724" lon="17.6855999"><ele>110.5</ele><time>2026-05-02T16:05:10.064Z</time></trkpt><trkpt lat="48.0297089" lon="17.6856113"><ele>110.33333333333333</ele><time>2026-05-02T16:05:11.065Z</time></trkpt><trkpt lat="48.0296359" lon="17.6856198"><ele>110.16666666666666</ele><time>2026-05-02T16:05:12.064Z</time></trkpt><trkpt lat="48.0295469" lon="17.6856217"><ele>110.0</ele><time>2026-05-02T16:05:13.064Z</time></trkpt><trkpt lat="48.0294481" lon="17.6856347"><ele>110.0</ele><time>2026-05-02T16:05:14.065Z</time></trkpt><trkpt lat="48.0293401" lon="17.6856497"><ele>110.0</ele><time>2026-05-02T16:05:15.064Z</time></trkpt><trkpt lat="48.0292251" lon="17.6856623"><ele>110.0</ele><time>2026-05-02T16:05:16.065Z</time></trkpt><trkpt lat="48.0291065" lon="17.6856698"><ele>110.0</ele><time>2026-05-02T16:05:17.064Z</time></trkpt><trkpt lat="48.0289814" lon="17.6856767"><ele>110.0</ele><time>2026-05-02T16:05:18.064Z</time></trkpt><trkpt lat="48.0288486" lon="17.6856911"><ele>110.0</ele><time>2026-05-02T16:05:19.064Z</time></trkpt><trkpt lat="48.028713" lon="17.6857213"><ele>110.0</ele><time>2026-05-02T16:05:20.065Z</time></trkpt><trkpt lat="48.0285865" lon="17.6857678"><ele>110.0</ele><time>2026-05-02T16:05:21.064Z</time></trkpt><trkpt lat="48.0284666" lon="17.6858307"><ele>110.0</ele><time>2026-05-02T16:05:22.064Z</time></trkpt><trkpt lat="48.0283607" lon="17.6858947"><ele>110.0</ele><time>2026-05-02T16:05:23.064Z</time></trkpt><trkpt lat="48.0282632" lon="17.6859577"><ele>110.0</ele><time>2026-05-02T16:05:24.064Z</time></trkpt><trkpt lat="48.0281772" lon="17.6860196"><ele>110.0</ele><time>2026-05-02T16:05:25.065Z</time></trkpt><trkpt lat="48.0281001" lon="17.686076"><ele>110.0</ele><time>2026-05-02T16:05:26.064Z</time></trkpt><trkpt lat="48.0280205" lon="17.6861298"><ele>110.0</ele><time>2026-05-02T16:05:27.064Z</time></trkpt><trkpt lat="48.0279478" lon="17.6861752"><ele>110.0</ele><time>2026-05-02T16:05:28.064Z</time></trkpt><trkpt lat="48.0278826" lon="17.6862146"><ele>110.0</ele><time>2026-05-02T16:05:29.064Z</time></trkpt><trkpt lat="48.027789" lon="17.6862718"><ele>110.0</ele><time>2026-05-02T16:05:31.065Z</time></trkpt><trkpt lat="48.0276994" lon="17.6863329"><ele>110.0</ele><time>2026-05-02T16:05:34.064Z</time></trkpt><trkpt lat="48.027602" lon="17.6863961"><ele>109.99999999999999</ele><time>2026-05-02T16:05:36.065Z</time></trkpt><trkpt lat="48.027543" lon="17.6864343"><ele>110.0</ele><time>2026-05-02T16:05:37.064Z</time></trkpt><trkpt lat="48.0274721" lon="17.686476"><ele>110.0</ele><time>2026-05-02T16:05:38.064Z</time></trkpt><trkpt lat="48.0273914" lon="17.6865299"><ele>110.0</ele><time>2026-05-02T16:05:39.065Z</time></trkpt><trkpt lat="48.027305" lon="17.6865883"><ele>109.99999999999999</ele><time>2026-05-02T16:05:40.065Z</time></trkpt><trkpt lat="48.0272143" lon="17.6866461"><ele>110.0</ele><time>2026-05-02T16:05:41.064Z</time></trkpt><trkpt lat="48.0271178" lon="17.6867114"><ele>110.0</ele><time>2026-05-02T16:05:42.065Z</time></trkpt><trkpt lat="48.0270197" lon="17.6867692"><ele>110.0</ele><time>2026-05-02T16:05:43.064Z</time></trkpt><trkpt lat="48.0269245" lon="17.6868314"><ele>110.0</ele><time>2026-05-02T16:05:44.064Z</time></trkpt><trkpt lat="48.0268313" lon="17.6868887"><ele>110.0</ele><time>2026-05-02T16:05:45.064Z</time></trkpt><trkpt lat="48.0267474" lon="17.6869427"><ele>110.0</ele><time>2026-05-02T16:05:46.064Z</time></trkpt><trkpt lat="48.0266741" lon="17.6869941"><ele>109.83333333333333</ele><time>2026-05-02T16:05:47.065Z</time></trkpt><trkpt lat="48.0266065" lon="17.6870381"><ele>109.66666666666666</ele><time>2026-05-02T16:05:48.065Z</time></trkpt><trkpt lat="48.0265391" lon="17.6870731"><ele>109.5</ele><time>2026-05-02T16:05:49.065Z</time></trkpt><trkpt lat="48.026471" lon="17.6871011"><ele>109.33333333333334</ele><time>2026-05-02T16:05:50.065Z</time></trkpt><trkpt lat="48.0264049" lon="17.6871155"><ele>109.16666666666667</ele><time>2026-05-02T16:05:51.064Z</time></trkpt><trkpt lat="48.0262898" lon="17.6871103"><ele>109.0</ele><time>2026-05-02T16:05:53.064Z</time></trkpt><trkpt lat="48.0261745" lon="17.6870337"><ele>109.0</ele><time>2026-05-02T16:05:55.065Z</time></trkpt><trkpt lat="48.026114" lon="17.6869763"><ele>109.0</ele><time>2026-05-02T16:05:56.065Z</time></trkpt><trkpt lat="48.026046" lon="17.6868944"><ele>109.0</ele><time>2026-05-02T16:05:57.064Z</time></trkpt><trkpt lat="48.0259634" lon="17.6867998"><ele>109.0</ele><time>2026-05-02T16:05:58.064Z</time></trkpt><trkpt lat="48.025874" lon="17.6866893"><ele>109.0</ele><time>2026-05-02T16:05:59.064Z</time></trkpt><trkpt lat="48.0257718" lon="17.6865637"><ele>109.25</ele><time>2026-05-02T16:06:00.065Z</time></trkpt><trkpt lat="48.0256649" lon="17.6864364"><ele>109.5</ele><time>2026-05-02T16:06:01.064Z</time></trkpt><trkpt lat="48.0255542" lon="17.6863006"><ele>109.75</ele><time>2026-05-02T16:06:02.064Z</time></trkpt><trkpt lat="48.0254334" lon="17.686156"><ele>110.0</ele><time>2026-05-02T16:06:03.065Z</time></trkpt><trkpt lat="48.0253073" lon="17.6860015"><ele>110.0</ele><time>2026-05-02T16:06:04.065Z</time></trkpt><trkpt lat="48.0251749" lon="17.6858365"><ele>110.0</ele><time>2026-05-02T16:06:05.065Z</time></trkpt><trkpt lat="48.0250393" lon="17.6856645"><ele>110.0</ele><time>2026-05-02T16:06:06.064Z</time></trkpt><trkpt lat="48.0248989" lon="17.6854917"><ele>110.0</ele><time>2026-05-02T16:06:07.065Z</time></trkpt><trkpt lat="48.0247554" lon="17.6853183"><ele>110.0</ele><time>2026-05-02T16:06:08.064Z</time></trkpt><trkpt lat="48.0246073" lon="17.6851409"><ele>110.0</ele><time>2026-05-02T16:06:09.064Z</time></trkpt><trkpt lat="48.02446" lon="17.6849563"><ele>110.0</ele><time>2026-05-02T16:06:10.064Z</time></trkpt><trkpt lat="48.0243121" lon="17.6847738"><ele>110.0</ele><time>2026-05-02T16:06:11.064Z</time></trkpt><trkpt lat="48.0241645" lon="17.6845929"><ele>110.0</ele><time>2026-05-02T16:06:12.065Z</time></trkpt><trkpt lat="48.0240129" lon="17.6844152"><ele>110.0</ele><time>2026-05-02T16:06:13.064Z</time></trkpt><trkpt lat="48.023867" lon="17.6842346"><ele>110.0</ele><time>2026-05-02T16:06:14.064Z</time></trkpt><trkpt lat="48.0237159" lon="17.6840531"><ele>110.0</ele><time>2026-05-02T16:06:15.064Z</time></trkpt><trkpt lat="48.0235699" lon="17.683867"><ele>110.0</ele><time>2026-05-02T16:06:16.065Z</time></trkpt><trkpt lat="48.0234211" lon="17.6836858"><ele>110.0</ele><time>2026-05-02T16:06:17.065Z</time></trkpt><trkpt lat="48.023266" lon="17.6835003"><ele>110.0</ele><time>2026-05-02T16:06:18.064Z</time></trkpt><trkpt lat="48.0231139" lon="17.683321"><ele>110.0</ele><time>2026-05-02T16:06:19.064Z</time></trkpt><trkpt lat="48.0229655" lon="17.6831404"><ele>110.0</ele><time>2026-05-02T16:06:20.065Z</time></trkpt><trkpt lat="48.022817" lon="17.6829607"><ele>110.0</ele><time>2026-05-02T16:06:21.064Z</time></trkpt><trkpt lat="48.022673" lon="17.6827841"><ele>110.0</ele><time>2026-05-02T16:06:22.064Z</time></trkpt><trkpt lat="48.0225284" lon="17.6826035"><ele>110.0</ele><time>2026-05-02T16:06:23.065Z</time></trkpt><trkpt lat="48.022384" lon="17.6824221"><ele>110.0</ele><time>2026-05-02T16:06:24.064Z</time></trkpt><trkpt lat="48.0222367" lon="17.6822447"><ele>110.0</ele><time>2026-05-02T16:06:25.064Z</time></trkpt><trkpt lat="48.0220875" lon="17.6820619"><ele>110.0</ele><time>2026-05-02T16:06:26.065Z</time></trkpt><trkpt lat="48.0219383" lon="17.6818807"><ele>110.0</ele><time>2026-05-02T16:06:27.065Z</time></trkpt><trkpt lat="48.0217903" lon="17.6817065"><ele>110.0</ele><time>2026-05-02T16:06:28.065Z</time></trkpt><trkpt lat="48.0216412" lon="17.6815267"><ele>110.0</ele><time>2026-05-02T16:06:29.064Z</time></trkpt><trkpt lat="48.0214918" lon="17.6813514"><ele>110.0</ele><time>2026-05-02T16:06:30.065Z</time></trkpt><trkpt lat="48.0213497" lon="17.681173"><ele>110.0</ele><time>2026-05-02T16:06:31.065Z</time></trkpt><trkpt lat="48.0212107" lon="17.6809989"><ele>110.0</ele><time>2026-05-02T16:06:32.065Z</time></trkpt><trkpt lat="48.0210721" lon="17.6808302"><ele>110.0</ele><time>2026-05-02T16:06:33.064Z</time></trkpt><trkpt lat="48.0209359" lon="17.680669"><ele>110.0</ele><time>2026-05-02T16:06:34.065Z</time></trkpt><trkpt lat="48.0207979" lon="17.6804979"><ele>110.0</ele><time>2026-05-02T16:06:35.064Z</time></trkpt><trkpt lat="48.0206652" lon="17.6803353"><ele>110.0</ele><time>2026-05-02T16:06:36.064Z</time></trkpt><trkpt lat="48.0205342" lon="17.680177"><ele>109.66666666666666</ele><time>2026-05-02T16:06:37.064Z</time></trkpt><trkpt lat="48.0204091" lon="17.6800164"><ele>109.33333333333334</ele><time>2026-05-02T16:06:38.064Z</time></trkpt><trkpt lat="48.020301" lon="17.6798241"><ele>109.0</ele><time>2026-05-02T16:06:39.065Z</time></trkpt><trkpt lat="48.0202082" lon="17.6795923"><ele>109.66666666666667</ele><time>2026-05-02T16:06:40.064Z</time></trkpt><trkpt lat="48.0201308" lon="17.6793633"><ele>110.33333333333334</ele><time>2026-05-02T16:06:41.064Z</time></trkpt><trkpt lat="48.0200565" lon="17.679122"><ele>111.0</ele><time>2026-05-02T16:06:42.065Z</time></trkpt><trkpt lat="48.0199814" lon="17.6788718"><ele>111.0</ele><time>2026-05-02T16:06:43.064Z</time></trkpt><trkpt lat="48.0199027" lon="17.6786156"><ele>111.0</ele><time>2026-05-02T16:06:44.065Z</time></trkpt><trkpt lat="48.0198223" lon="17.6783597"><ele>111.0</ele><time>2026-05-02T16:06:45.065Z</time></trkpt><trkpt lat="48.0197399" lon="17.6780944"><ele>111.0</ele><time>2026-05-02T16:06:46.064Z</time></trkpt><trkpt lat="48.0196578" lon="17.6778289"><ele>111.0</ele><time>2026-05-02T16:06:47.064Z</time></trkpt><trkpt lat="48.0195709" lon="17.6775645"><ele>111.0</ele><time>2026-05-02T16:06:48.065Z</time></trkpt><trkpt lat="48.0194831" lon="17.6772983"><ele>111.0</ele><time>2026-05-02T16:06:49.065Z</time></trkpt><trkpt lat="48.0194005" lon="17.677035"><ele>111.0</ele><time>2026-05-02T16:06:50.065Z</time></trkpt><trkpt lat="48.0193184" lon="17.6767749"><ele>111.0</ele><time>2026-05-02T16:06:51.064Z</time></trkpt><trkpt lat="48.0192367" lon="17.6765188"><ele>110.66666666666666</ele><time>2026-05-02T16:06:52.064Z</time></trkpt><trkpt lat="48.0191579" lon="17.6762648"><ele>110.33333333333333</ele><time>2026-05-02T16:06:53.065Z</time></trkpt><trkpt lat="48.0190793" lon="17.6760234"><ele>110.0</ele><time>2026-05-02T16:06:54.064Z</time></trkpt><trkpt lat="48.0189951" lon="17.6757932"><ele>110.0</ele><time>2026-05-02T16:06:55.064Z</time></trkpt><trkpt lat="48.0189038" lon="17.6755876"><ele>110.0</ele><time>2026-05-02T16:06:56.065Z</time></trkpt><trkpt lat="48.0187922" lon="17.6754016"><ele>110.0</ele><time>2026-05-02T16:06:57.064Z</time></trkpt><trkpt lat="48.0186661" lon="17.6752216"><ele>110.0</ele><time>2026-05-02T16:06:58.064Z</time></trkpt><trkpt lat="48.0185294" lon="17.6750564"><ele>110.0</ele><time>2026-05-02T16:06:59.065Z</time></trkpt><trkpt lat="48.0183866" lon="17.6748888"><ele>110.0</ele><time>2026-05-02T16:07:00.064Z</time></trkpt><trkpt lat="48.0182434" lon="17.6747178"><ele>110.0</ele><time>2026-05-02T16:07:01.065Z</time></trkpt><trkpt lat="48.0180913" lon="17.6745419"><ele>110.0</ele><time>2026-05-02T16:07:02.065Z</time></trkpt><trkpt lat="48.0179397" lon="17.6743591"><ele>110.0</ele><time>2026-05-02T16:07:03.064Z</time></trkpt><trkpt lat="48.0177833" lon="17.6741772"><ele>110.0</ele><time>2026-05-02T16:07:04.064Z</time></trkpt><trkpt lat="48.0176245" lon="17.673987"><ele>110.0</ele><time>2026-05-02T16:07:05.065Z</time></trkpt><trkpt lat="48.0174642" lon="17.6737943"><ele>110.0</ele><time>2026-05-02T16:07:06.065Z</time></trkpt><trkpt lat="48.0173028" lon="17.6735983"><ele>110.0</ele><time>2026-05-02T16:07:07.064Z</time></trkpt><trkpt lat="48.0171426" lon="17.6734059"><ele>110.0</ele><time>2026-05-02T16:07:08.065Z</time></trkpt><trkpt lat="48.0169806" lon="17.6732078"><ele>110.0</ele><time>2026-05-02T16:07:09.065Z</time></trkpt><trkpt lat="48.0168172" lon="17.6730089"><ele>110.0</ele><time>2026-05-02T16:07:10.064Z</time></trkpt><trkpt lat="48.016659" lon="17.6728098"><ele>110.0</ele><time>2026-05-02T16:07:11.064Z</time></trkpt><trkpt lat="48.0164963" lon="17.6726101"><ele>110.0</ele><time>2026-05-02T16:07:12.065Z</time></trkpt><trkpt lat="48.0163304" lon="17.672408"><ele>110.0</ele><time>2026-05-02T16:07:13.064Z</time></trkpt><trkpt lat="48.0161633" lon="17.6722039"><ele>110.0</ele><time>2026-05-02T16:07:14.065Z</time></trkpt><trkpt lat="48.0159972" lon="17.6719998"><ele>110.0</ele><time>2026-05-02T16:07:15.065Z</time></trkpt><trkpt lat="48.015835" lon="17.671803"><ele>110.0</ele><time>2026-05-02T16:07:16.064Z</time></trkpt><trkpt lat="48.0156687" lon="17.6716058"><ele>110.0</ele><time>2026-05-02T16:07:17.064Z</time></trkpt><trkpt lat="48.0155011" lon="17.6714032"><ele>110.0</ele><time>2026-05-02T16:07:18.065Z</time></trkpt><trkpt lat="48.0153327" lon="17.6711956"><ele>110.0</ele><time>2026-05-02T16:07:19.065Z</time></trkpt><trkpt lat="48.0151613" lon="17.6709848"><ele>110.0</ele><time>2026-05-02T16:07:20.064Z</time></trkpt><trkpt lat="48.0149917" lon="17.6707755"><ele>110.0</ele><time>2026-05-02T16:07:21.064Z</time></trkpt><trkpt lat="48.0148236" lon="17.6705662"><ele>109.66666666666666</ele><time>2026-05-02T16:07:22.064Z</time></trkpt><trkpt lat="48.0146573" lon="17.6703557"><ele>109.33333333333334</ele><time>2026-05-02T16:07:23.064Z</time></trkpt><trkpt lat="48.0144875" lon="17.6701529"><ele>109.0</ele><time>2026-05-02T16:07:24.064Z</time></trkpt><trkpt lat="48.0143215" lon="17.6699519"><ele>109.33333333333334</ele><time>2026-05-02T16:07:25.064Z</time></trkpt><trkpt lat="48.0141514" lon="17.6697493"><ele>109.66666666666666</ele><time>2026-05-02T16:07:26.064Z</time></trkpt><trkpt lat="48.0139886" lon="17.6695452"><ele>110.0</ele><time>2026-05-02T16:07:27.065Z</time></trkpt><trkpt lat="48.0138201" lon="17.66934"><ele>110.33333333333333</ele><time>2026-05-02T16:07:28.064Z</time></trkpt><trkpt lat="48.0136535" lon="17.6691399"><ele>110.66666666666666</ele><time>2026-05-02T16:07:29.065Z</time></trkpt><trkpt lat="48.0134854" lon="17.6689351"><ele>111.0</ele><time>2026-05-02T16:07:30.064Z</time></trkpt><trkpt lat="48.0133167" lon="17.6687263"><ele>110.66666666666666</ele><time>2026-05-02T16:07:31.064Z</time></trkpt><trkpt lat="48.0131468" lon="17.6685175"><ele>110.33333333333333</ele><time>2026-05-02T16:07:32.065Z</time></trkpt><trkpt lat="48.0129732" lon="17.6683118"><ele>110.0</ele><time>2026-05-02T16:07:33.065Z</time></trkpt><trkpt lat="48.0128021" lon="17.668103"><ele>110.0</ele><time>2026-05-02T16:07:34.064Z</time></trkpt><trkpt lat="48.0126343" lon="17.6678985"><ele>110.0</ele><time>2026-05-02T16:07:35.064Z</time></trkpt><trkpt lat="48.0124697" lon="17.6676984"><ele>110.0</ele><time>2026-05-02T16:07:36.065Z</time></trkpt><trkpt lat="48.012303" lon="17.6674948"><ele>110.0</ele><time>2026-05-02T16:07:37.064Z</time></trkpt><trkpt lat="48.0121345" lon="17.6672914"><ele>110.0</ele><time>2026-05-02T16:07:38.064Z</time></trkpt><trkpt lat="48.0119668" lon="17.6670864"><ele>110.0</ele><time>2026-05-02T16:07:39.064Z</time></trkpt><trkpt lat="48.0117952" lon="17.6668825"><ele>110.33333333333333</ele><time>2026-05-02T16:07:40.064Z</time></trkpt><trkpt lat="48.0116221" lon="17.6666755"><ele>110.66666666666666</ele><time>2026-05-02T16:07:41.064Z</time></trkpt><trkpt lat="48.0114518" lon="17.6664726"><ele>111.0</ele><time>2026-05-02T16:07:42.065Z</time></trkpt><trkpt lat="48.0112872" lon="17.6662805"><ele>111.0</ele><time>2026-05-02T16:07:43.064Z</time></trkpt><trkpt lat="48.0111286" lon="17.6660847"><ele>111.0</ele><time>2026-05-02T16:07:44.064Z</time></trkpt><trkpt lat="48.0109681" lon="17.6658958"><ele>111.0</ele><time>2026-05-02T16:07:45.064Z</time></trkpt><trkpt lat="48.0108103" lon="17.6656966"><ele>111.0</ele><time>2026-05-02T16:07:46.064Z</time></trkpt><trkpt lat="48.0106466" lon="17.665493"><ele>111.0</ele><time>2026-05-02T16:07:47.065Z</time></trkpt><trkpt lat="48.0104847" lon="17.6652917"><ele>111.0</ele><time>2026-05-02T16:07:48.064Z</time></trkpt><trkpt lat="48.010318" lon="17.6650905"><ele>111.0</ele><time>2026-05-02T16:07:49.064Z</time></trkpt><trkpt lat="48.0101498" lon="17.664888"><ele>111.0</ele><time>2026-05-02T16:07:50.064Z</time></trkpt><trkpt lat="48.0099843" lon="17.6646838"><ele>111.0</ele><time>2026-05-02T16:07:51.065Z</time></trkpt><trkpt lat="48.0098188" lon="17.664481"><ele>110.66666666666666</ele><time>2026-05-02T16:07:52.064Z</time></trkpt><trkpt lat="48.0096548" lon="17.6642803"><ele>110.33333333333333</ele><time>2026-05-02T16:07:53.065Z</time></trkpt><trkpt lat="48.009488" lon="17.6640733"><ele>110.0</ele><time>2026-05-02T16:07:54.065Z</time></trkpt><trkpt lat="48.0093215" lon="17.6638622"><ele>110.33333333333333</ele><time>2026-05-02T16:07:55.065Z</time></trkpt><trkpt lat="48.0091508" lon="17.6636511"><ele>110.66666666666666</ele><time>2026-05-02T16:07:56.065Z</time></trkpt><trkpt lat="48.0089785" lon="17.6634424"><ele>111.0</ele><time>2026-05-02T16:07:57.065Z</time></trkpt><trkpt lat="48.0088087" lon="17.6632311"><ele>111.0</ele><time>2026-05-02T16:07:58.064Z</time></trkpt><trkpt lat="48.0086378" lon="17.6630203"><ele>111.0</ele><time>2026-05-02T16:07:59.064Z</time></trkpt><trkpt lat="48.0084635" lon="17.6628124"><ele>111.0</ele><time>2026-05-02T16:08:00.064Z</time></trkpt><trkpt lat="48.0082923" lon="17.6625971"><ele>111.0</ele><time>2026-05-02T16:08:01.064Z</time></trkpt><trkpt lat="48.0081217" lon="17.6623855"><ele>111.0</ele><time>2026-05-02T16:08:02.065Z</time></trkpt><trkpt lat="48.0079488" lon="17.6621736"><ele>111.0</ele><time>2026-05-02T16:08:03.066Z</time></trkpt><trkpt lat="48.007776" lon="17.6619655"><ele>110.66666666666666</ele><time>2026-05-02T16:08:04.066Z</time></trkpt><trkpt lat="48.0076099" lon="17.6617616"><ele>110.33333333333333</ele><time>2026-05-02T16:08:05.066Z</time></trkpt><trkpt lat="48.007447" lon="17.6615613"><ele>110.0</ele><time>2026-05-02T16:08:06.067Z</time></trkpt><trkpt lat="48.0072817" lon="17.66136"><ele>110.66666666666666</ele><time>2026-05-02T16:08:07.067Z</time></trkpt><trkpt lat="48.0071221" lon="17.6611602"><ele>111.33333333333334</ele><time>2026-05-02T16:08:08.067Z</time></trkpt><trkpt lat="48.0069567" lon="17.6609582"><ele>112.0</ele><time>2026-05-02T16:08:09.066Z</time></trkpt><trkpt lat="48.0067975" lon="17.6607644"><ele>112.0</ele><time>2026-05-02T16:08:10.067Z</time></trkpt><trkpt lat="48.0066406" lon="17.66057"><ele>112.0</ele><time>2026-05-02T16:08:11.067Z</time></trkpt><trkpt lat="48.0064852" lon="17.6603778"><ele>112.0</ele><time>2026-05-02T16:08:12.066Z</time></trkpt><trkpt lat="48.0063307" lon="17.6601854"><ele>112.0</ele><time>2026-05-02T16:08:13.066Z</time></trkpt><trkpt lat="48.0061782" lon="17.6599951"><ele>112.0</ele><time>2026-05-02T16:08:14.066Z</time></trkpt><trkpt lat="48.006028" lon="17.6598075"><ele>112.0</ele><time>2026-05-02T16:08:15.067Z</time></trkpt><trkpt lat="48.0058817" lon="17.6596222"><ele>112.0</ele><time>2026-05-02T16:08:16.066Z</time></trkpt><trkpt lat="48.0057357" lon="17.6594388"><ele>112.0</ele><time>2026-05-02T16:08:17.067Z</time></trkpt><trkpt lat="48.0055964" lon="17.6592637"><ele>112.0</ele><time>2026-05-02T16:08:18.066Z</time></trkpt><trkpt lat="48.0054617" lon="17.6590979"><ele>112.0</ele><time>2026-05-02T16:08:19.067Z</time></trkpt><trkpt lat="48.0053301" lon="17.6589369"><ele>112.0</ele><time>2026-05-02T16:08:20.066Z</time></trkpt><trkpt lat="48.0051984" lon="17.6587781"><ele>112.0</ele><time>2026-05-02T16:08:21.066Z</time></trkpt><trkpt lat="48.0050734" lon="17.6586284"><ele>112.66666666666667</ele><time>2026-05-02T16:08:22.066Z</time></trkpt><trkpt lat="48.004952" lon="17.6584778"><ele>113.33333333333334</ele><time>2026-05-02T16:08:23.066Z</time></trkpt><trkpt lat="48.0048338" lon="17.6583297"><ele>114.0</ele><time>2026-05-02T16:08:24.066Z</time></trkpt><trkpt lat="48.004712" lon="17.658182"><ele>114.0</ele><time>2026-05-02T16:08:25.066Z</time></trkpt><trkpt lat="48.0045952" lon="17.6580369"><ele>114.0</ele><time>2026-05-02T16:08:26.067Z</time></trkpt><trkpt lat="48.0044796" lon="17.6578934"><ele>114.0</ele><time>2026-05-02T16:08:27.067Z</time></trkpt><trkpt lat="48.0043661" lon="17.6577522"><ele>113.75</ele><time>2026-05-02T16:08:28.066Z</time></trkpt><trkpt lat="48.0042551" lon="17.6576206"><ele>113.5</ele><time>2026-05-02T16:08:29.067Z</time></trkpt><trkpt lat="48.0041463" lon="17.6574881"><ele>113.25</ele><time>2026-05-02T16:08:30.066Z</time></trkpt><trkpt lat="48.004041" lon="17.6573564"><ele>113.0</ele><time>2026-05-02T16:08:31.066Z</time></trkpt><trkpt lat="48.0039391" lon="17.6572226"><ele>113.0</ele><time>2026-05-02T16:08:32.066Z</time></trkpt><trkpt lat="48.0038327" lon="17.6570912"><ele>113.0</ele><time>2026-05-02T16:08:33.067Z</time></trkpt><trkpt lat="48.0037232" lon="17.6569559"><ele>113.0</ele><time>2026-05-02T16:08:34.067Z</time></trkpt><trkpt lat="48.0036138" lon="17.6568031"><ele>113.0</ele><time>2026-05-02T16:08:35.067Z</time></trkpt><trkpt lat="48.0035071" lon="17.6566514"><ele>113.0</ele><time>2026-05-02T16:08:36.067Z</time></trkpt><trkpt lat="48.0034043" lon="17.6565008"><ele>113.0</ele><time>2026-05-02T16:08:37.066Z</time></trkpt><trkpt lat="48.0032999" lon="17.6563501"><ele>113.0</ele><time>2026-05-02T16:08:38.066Z</time></trkpt><trkpt lat="48.0031948" lon="17.6561993"><ele>113.0</ele><time>2026-05-02T16:08:39.067Z</time></trkpt><trkpt lat="48.0030848" lon="17.6560557"><ele>113.25</ele><time>2026-05-02T16:08:40.066Z</time></trkpt><trkpt lat="48.0029743" lon="17.6559184"><ele>113.5</ele><time>2026-05-02T16:08:41.066Z</time></trkpt><trkpt lat="48.0028579" lon="17.6557843"><ele>113.75</ele><time>2026-05-02T16:08:42.067Z</time></trkpt><trkpt lat="48.0027394" lon="17.6556568"><ele>114.0</ele><time>2026-05-02T16:08:43.067Z</time></trkpt><trkpt lat="48.0026215" lon="17.6555363"><ele>114.0</ele><time>2026-05-02T16:08:44.066Z</time></trkpt><trkpt lat="48.0025017" lon="17.6554193"><ele>114.0</ele><time>2026-05-02T16:08:45.067Z</time></trkpt><trkpt lat="48.0023844" lon="17.6552937"><ele>114.0</ele><time>2026-05-02T16:08:46.067Z</time></trkpt><trkpt lat="48.0022657" lon="17.6551712"><ele>114.0</ele><time>2026-05-02T16:08:47.067Z</time></trkpt><trkpt lat="48.0021448" lon="17.6550521"><ele>114.0</ele><time>2026-05-02T16:08:48.067Z</time></trkpt><trkpt lat="48.0020288" lon="17.6549342"><ele>114.0</ele><time>2026-05-02T16:08:49.066Z</time></trkpt><trkpt lat="48.0019113" lon="17.6548196"><ele>114.0</ele><time>2026-05-02T16:08:50.067Z</time></trkpt><trkpt lat="48.0017917" lon="17.6547068"><ele>114.0</ele><time>2026-05-02T16:08:51.066Z</time></trkpt><trkpt lat="48.001671" lon="17.6545927"><ele>114.0</ele><time>2026-05-02T16:08:52.067Z</time></trkpt><trkpt lat="48.0015472" lon="17.6544786"><ele>114.0</ele><time>2026-05-02T16:08:53.066Z</time></trkpt><trkpt lat="48.0014254" lon="17.6543665"><ele>114.0</ele><time>2026-05-02T16:08:54.066Z</time></trkpt><trkpt lat="48.0013051" lon="17.6542624"><ele>114.0</ele><time>2026-05-02T16:08:55.067Z</time></trkpt><trkpt lat="48.0011857" lon="17.6541572"><ele>114.0</ele><time>2026-05-02T16:08:56.066Z</time></trkpt><trkpt lat="48.0010705" lon="17.654057"><ele>114.0</ele><time>2026-05-02T16:08:57.066Z</time></trkpt><trkpt lat="48.0009589" lon="17.6539616"><ele>114.0</ele><time>2026-05-02T16:08:58.067Z</time></trkpt><trkpt lat="48.0008599" lon="17.6538705"><ele>114.0</ele><time>2026-05-02T16:08:59.067Z</time></trkpt><trkpt lat="48.0007734" lon="17.6537899"><ele>113.83333333333333</ele><time>2026-05-02T16:09:00.067Z</time></trkpt><trkpt lat="48.0006922" lon="17.653716"><ele>113.66666666666666</ele><time>2026-05-02T16:09:01.066Z</time></trkpt><trkpt lat="48.0006179" lon="17.6536486"><ele>113.5</ele><time>2026-05-02T16:09:02.066Z</time></trkpt><trkpt lat="48.0005498" lon="17.6535918"><ele>113.33333333333333</ele><time>2026-05-02T16:09:03.066Z</time></trkpt><trkpt lat="48.0004829" lon="17.6535394"><ele>113.16666666666666</ele><time>2026-05-02T16:09:04.066Z</time></trkpt><trkpt lat="48.0004071" lon="17.6534961"><ele>113.0</ele><time>2026-05-02T16:09:05.066Z</time></trkpt><trkpt lat="48.0003237" lon="17.6534554"><ele>113.0</ele><time>2026-05-02T16:09:06.066Z</time></trkpt><trkpt lat="48.0002263" lon="17.6534331"><ele>113.00000000000001</ele><time>2026-05-02T16:09:07.067Z</time></trkpt><trkpt lat="48.0001302" lon="17.6534181"><ele>113.00000000000001</ele><time>2026-05-02T16:09:08.066Z</time></trkpt><trkpt lat="48.0000394" lon="17.6534217"><ele>113.0</ele><time>2026-05-02T16:09:09.066Z</time></trkpt><trkpt lat="47.9999525" lon="17.6534367"><ele>113.0</ele><time>2026-05-02T16:09:10.066Z</time></trkpt><trkpt lat="47.9998746" lon="17.6534743"><ele>113.0</ele><time>2026-05-02T16:09:11.066Z</time></trkpt><trkpt lat="47.9998014" lon="17.6535392"><ele>113.00000000000001</ele><time>2026-05-02T16:09:12.067Z</time></trkpt><trkpt lat="47.9997343" lon="17.6536255"><ele>113.00000000000001</ele><time>2026-05-02T16:09:13.067Z</time></trkpt><trkpt lat="47.9996798" lon="17.6537326"><ele>113.0</ele><time>2026-05-02T16:09:14.066Z</time></trkpt><trkpt lat="47.9996272" lon="17.6538474"><ele>113.0</ele><time>2026-05-02T16:09:15.067Z</time></trkpt><trkpt lat="47.9995803" lon="17.653979"><ele>113.0</ele><time>2026-05-02T16:09:16.066Z</time></trkpt><trkpt lat="47.9995429" lon="17.6541248"><ele>113.00000000000001</ele><time>2026-05-02T16:09:17.066Z</time></trkpt><trkpt lat="47.9995094" lon="17.6542713"><ele>113.00000000000001</ele><time>2026-05-02T16:09:18.067Z</time></trkpt><trkpt lat="47.9994765" lon="17.6544172"><ele>113.0</ele><time>2026-05-02T16:09:19.066Z</time></trkpt><trkpt lat="47.9994483" lon="17.6545751"><ele>113.0</ele><time>2026-05-02T16:09:20.067Z</time></trkpt><trkpt lat="47.9994138" lon="17.6547381"><ele>113.0</ele><time>2026-05-02T16:09:21.066Z</time></trkpt><trkpt lat="47.9993882" lon="17.6549036"><ele>113.0</ele><time>2026-05-02T16:09:22.067Z</time></trkpt><trkpt lat="47.999363" lon="17.6550719"><ele>113.0</ele><time>2026-05-02T16:09:23.067Z</time></trkpt><trkpt lat="47.9993418" lon="17.6552519"><ele>113.0</ele><time>2026-05-02T16:09:24.067Z</time></trkpt><trkpt lat="47.9993258" lon="17.6554241"><ele>113.0</ele><time>2026-05-02T16:09:25.066Z</time></trkpt><trkpt lat="47.9993149" lon="17.6556"><ele>113.0</ele><time>2026-05-02T16:09:26.066Z</time></trkpt><trkpt lat="47.9993084" lon="17.6557795"><ele>113.0</ele><time>2026-05-02T16:09:27.066Z</time></trkpt><trkpt lat="47.9993003" lon="17.6559636"><ele>113.0</ele><time>2026-05-02T16:09:28.066Z</time></trkpt><trkpt lat="47.9992926" lon="17.6561564"><ele>113.0</ele><time>2026-05-02T16:09:29.066Z</time></trkpt><trkpt lat="47.9992778" lon="17.6563478"><ele>113.0</ele><time>2026-05-02T16:09:30.065Z</time></trkpt><trkpt lat="47.9992527" lon="17.6565402"><ele>113.0</ele><time>2026-05-02T16:09:31.066Z</time></trkpt><trkpt lat="47.9992209" lon="17.6567295"><ele>113.0</ele><time>2026-05-02T16:09:32.065Z</time></trkpt><trkpt lat="47.9991818" lon="17.6569254"><ele>113.25</ele><time>2026-05-02T16:09:33.065Z</time></trkpt><trkpt lat="47.9991395" lon="17.6571147"><ele>113.5</ele><time>2026-05-02T16:09:34.066Z</time></trkpt><trkpt lat="47.9990987" lon="17.657301"><ele>113.75</ele><time>2026-05-02T16:09:35.066Z</time></trkpt><trkpt lat="47.9990528" lon="17.6574906"><ele>114.0</ele><time>2026-05-02T16:09:36.065Z</time></trkpt><trkpt lat="47.9990097" lon="17.6576735"><ele>114.0</ele><time>2026-05-02T16:09:37.066Z</time></trkpt><trkpt lat="47.9989758" lon="17.6578589"><ele>114.0</ele><time>2026-05-02T16:09:38.065Z</time></trkpt><trkpt lat="47.9989381" lon="17.6580417"><ele>114.0</ele><time>2026-05-02T16:09:39.066Z</time></trkpt><trkpt lat="47.9989012" lon="17.6582179"><ele>114.0</ele><time>2026-05-02T16:09:40.065Z</time></trkpt><trkpt lat="47.9988681" lon="17.658392"><ele>114.0</ele><time>2026-05-02T16:09:41.065Z</time></trkpt><trkpt lat="47.9988348" lon="17.6585618"><ele>114.0</ele><time>2026-05-02T16:09:42.065Z</time></trkpt><trkpt lat="47.9988056" lon="17.6587173"><ele>114.0</ele><time>2026-05-02T16:09:43.065Z</time></trkpt><trkpt lat="47.9987757" lon="17.6588608"><ele>114.0</ele><time>2026-05-02T16:09:44.066Z</time></trkpt><trkpt lat="47.9987479" lon="17.6589871"><ele>114.0</ele><time>2026-05-02T16:09:45.065Z</time></trkpt><trkpt lat="47.9987223" lon="17.6591071"><ele>113.83333333333333</ele><time>2026-05-02T16:09:46.066Z</time></trkpt><trkpt lat="47.9986962" lon="17.6592113"><ele>113.66666666666666</ele><time>2026-05-02T16:09:47.065Z</time></trkpt><trkpt lat="47.9986776" lon="17.6593091"><ele>113.5</ele><time>2026-05-02T16:09:48.065Z</time></trkpt><trkpt lat="47.9986562" lon="17.659398"><ele>113.33333333333333</ele><time>2026-05-02T16:09:49.066Z</time></trkpt><trkpt lat="47.9986223" lon="17.6595405"><ele>113.16666666666666</ele><time>2026-05-02T16:09:51.066Z</time></trkpt><trkpt lat="47.9985964" lon="17.6596934"><ele>113.0</ele><time>2026-05-02T16:09:53.066Z</time></trkpt><trkpt lat="47.9985662" lon="17.6598833"><ele>113.0</ele><time>2026-05-02T16:09:55.065Z</time></trkpt><trkpt lat="47.9985498" lon="17.6600089"><ele>113.00000000000001</ele><time>2026-05-02T16:09:56.065Z</time></trkpt><trkpt lat="47.9985223" lon="17.6601655"><ele>113.00000000000001</ele><time>2026-05-02T16:09:57.066Z</time></trkpt><trkpt lat="47.9984877" lon="17.6603399"><ele>113.0</ele><time>2026-05-02T16:09:58.065Z</time></trkpt><trkpt lat="47.9984449" lon="17.6605179"><ele>113.0</ele><time>2026-05-02T16:09:59.065Z</time></trkpt><trkpt lat="47.9984076" lon="17.6606963"><ele>113.0</ele><time>2026-05-02T16:10:00.065Z</time></trkpt><trkpt lat="47.9983662" lon="17.6608867"><ele>113.0</ele><time>2026-05-02T16:10:01.065Z</time></trkpt><trkpt lat="47.9983215" lon="17.6610887"><ele>113.0</ele><time>2026-05-02T16:10:02.065Z</time></trkpt><trkpt lat="47.998275" lon="17.6612995"><ele>113.0</ele><time>2026-05-02T16:10:03.065Z</time></trkpt><trkpt lat="47.9982318" lon="17.6615104"><ele>112.5</ele><time>2026-05-02T16:10:04.066Z</time></trkpt><trkpt lat="47.9981853" lon="17.6617204"><ele>112.0</ele><time>2026-05-02T16:10:05.065Z</time></trkpt><trkpt lat="47.9981418" lon="17.6619294"><ele>111.5</ele><time>2026-05-02T16:10:06.065Z</time></trkpt><trkpt lat="47.9980997" lon="17.6621386"><ele>111.0</ele><time>2026-05-02T16:10:07.066Z</time></trkpt><trkpt lat="47.9980571" lon="17.6623555"><ele>111.0</ele><time>2026-05-02T16:10:08.066Z</time></trkpt><trkpt lat="47.9980125" lon="17.6625659"><ele>111.0</ele><time>2026-05-02T16:10:09.065Z</time></trkpt><trkpt lat="47.9979683" lon="17.662773"><ele>111.0</ele><time>2026-05-02T16:10:10.066Z</time></trkpt><trkpt lat="47.9979269" lon="17.6629727"><ele>111.0</ele><time>2026-05-02T16:10:11.065Z</time></trkpt><trkpt lat="47.9978907" lon="17.6631735"><ele>111.0</ele><time>2026-05-02T16:10:12.065Z</time></trkpt><trkpt lat="47.9978486" lon="17.6633686"><ele>111.0</ele><time>2026-05-02T16:10:13.065Z</time></trkpt><trkpt lat="47.9978087" lon="17.6635689"><ele>111.0</ele><time>2026-05-02T16:10:14.065Z</time></trkpt><trkpt lat="47.9977677" lon="17.6637752"><ele>111.0</ele><time>2026-05-02T16:10:15.066Z</time></trkpt><trkpt lat="47.9977279" lon="17.6639906"><ele>111.66666666666666</ele><time>2026-05-02T16:10:16.066Z</time></trkpt><trkpt lat="47.9976896" lon="17.6642156"><ele>112.33333333333333</ele><time>2026-05-02T16:10:17.065Z</time></trkpt><trkpt lat="47.9976474" lon="17.6644494"><ele>113.0</ele><time>2026-05-02T16:10:18.065Z</time></trkpt><trkpt lat="47.9975987" lon="17.6646906"><ele>113.0</ele><time>2026-05-02T16:10:19.066Z</time></trkpt><trkpt lat="47.9975472" lon="17.664941"><ele>113.0</ele><time>2026-05-02T16:10:20.065Z</time></trkpt><trkpt lat="47.9974985" lon="17.6651931"><ele>113.0</ele><time>2026-05-02T16:10:21.066Z</time></trkpt><trkpt lat="47.9974494" lon="17.6654612"><ele>112.66666666666666</ele><time>2026-05-02T16:10:22.066Z</time></trkpt><trkpt lat="47.9973955" lon="17.6657316"><ele>112.33333333333334</ele><time>2026-05-02T16:10:23.065Z</time></trkpt><trkpt lat="47.997342" lon="17.6660063"><ele>112.0</ele><time>2026-05-02T16:10:24.066Z</time></trkpt><trkpt lat="47.9972874" lon="17.6662833"><ele>112.0</ele><time>2026-05-02T16:10:25.066Z</time></trkpt><trkpt lat="47.9972325" lon="17.6665638"><ele>112.0</ele><time>2026-05-02T16:10:26.065Z</time></trkpt><trkpt lat="47.9971761" lon="17.6668418"><ele>112.0</ele><time>2026-05-02T16:10:27.065Z</time></trkpt><trkpt lat="47.9971177" lon="17.6671205"><ele>112.0</ele><time>2026-05-02T16:10:28.065Z</time></trkpt><trkpt lat="47.9970587" lon="17.6674035"><ele>112.0</ele><time>2026-05-02T16:10:29.065Z</time></trkpt><trkpt lat="47.9969995" lon="17.667688"><ele>112.0</ele><time>2026-05-02T16:10:30.066Z</time></trkpt><trkpt lat="47.996945" lon="17.6679694"><ele>112.0</ele><time>2026-05-02T16:10:31.066Z</time></trkpt><trkpt lat="47.9968905" lon="17.6682504"><ele>112.0</ele><time>2026-05-02T16:10:32.065Z</time></trkpt><trkpt lat="47.9968375" lon="17.6685295"><ele>112.0</ele><time>2026-05-02T16:10:33.065Z</time></trkpt><trkpt lat="47.9967837" lon="17.6688041"><ele>112.0</ele><time>2026-05-02T16:10:34.065Z</time></trkpt><trkpt lat="47.9967293" lon="17.6690712"><ele>112.0</ele><time>2026-05-02T16:10:35.066Z</time></trkpt><trkpt lat="47.9966736" lon="17.6693329"><ele>112.0</ele><time>2026-05-02T16:10:36.066Z</time></trkpt><trkpt lat="47.9966204" lon="17.6695934"><ele>112.0</ele><time>2026-05-02T16:10:37.065Z</time></trkpt><trkpt lat="47.9965686" lon="17.6698538"><ele>112.0</ele><time>2026-05-02T16:10:38.065Z</time></trkpt><trkpt lat="47.9965168" lon="17.6701157"><ele>112.0</ele><time>2026-05-02T16:10:39.066Z</time></trkpt><trkpt lat="47.9964639" lon="17.6703821"><ele>111.33333333333334</ele><time>2026-05-02T16:10:40.065Z</time></trkpt><trkpt lat="47.9964083" lon="17.6706527"><ele>110.66666666666666</ele><time>2026-05-02T16:10:41.065Z</time></trkpt><trkpt lat="47.9963517" lon="17.6709224"><ele>110.0</ele><time>2026-05-02T16:10:42.066Z</time></trkpt><trkpt lat="47.9962954" lon="17.6711904"><ele>110.0</ele><time>2026-05-02T16:10:43.066Z</time></trkpt><trkpt lat="47.9962402" lon="17.6714509"><ele>110.0</ele><time>2026-05-02T16:10:44.065Z</time></trkpt><trkpt lat="47.9961871" lon="17.6717084"><ele>110.0</ele><time>2026-05-02T16:10:45.065Z</time></trkpt><trkpt lat="47.9961358" lon="17.6719621"><ele>110.33333333333333</ele><time>2026-05-02T16:10:46.065Z</time></trkpt><trkpt lat="47.9960835" lon="17.6722112"><ele>110.66666666666666</ele><time>2026-05-02T16:10:47.066Z</time></trkpt><trkpt lat="47.9960354" lon="17.6724563"><ele>111.0</ele><time>2026-05-02T16:10:48.066Z</time></trkpt><trkpt lat="47.9959872" lon="17.6726936"><ele>111.33333333333334</ele><time>2026-05-02T16:10:49.066Z</time></trkpt><trkpt lat="47.9959382" lon="17.6729241"><ele>111.66666666666667</ele><time>2026-05-02T16:10:50.065Z</time></trkpt><trkpt lat="47.9958913" lon="17.6731433"><ele>112.0</ele><time>2026-05-02T16:10:51.065Z</time></trkpt><trkpt lat="47.9958479" lon="17.6733484"><ele>112.0</ele><time>2026-05-02T16:10:52.066Z</time></trkpt><trkpt lat="47.9958059" lon="17.6735437"><ele>112.0</ele><time>2026-05-02T16:10:53.065Z</time></trkpt><trkpt lat="47.9957728" lon="17.6737357"><ele>112.0</ele><time>2026-05-02T16:10:54.065Z</time></trkpt><trkpt lat="47.9957411" lon="17.6739307"><ele>112.0</ele><time>2026-05-02T16:10:55.065Z</time></trkpt><trkpt lat="47.9957069" lon="17.6741316"><ele>112.25</ele><time>2026-05-02T16:10:56.066Z</time></trkpt><trkpt lat="47.9956678" lon="17.6743358"><ele>112.5</ele><time>2026-05-02T16:10:57.065Z</time></trkpt><trkpt lat="47.995631" lon="17.6745548"><ele>112.75</ele><time>2026-05-02T16:10:58.065Z</time></trkpt><trkpt lat="47.995593" lon="17.6747753"><ele>113.0</ele><time>2026-05-02T16:10:59.065Z</time></trkpt><trkpt lat="47.9955472" lon="17.6750007"><ele>113.0</ele><time>2026-05-02T16:11:00.066Z</time></trkpt><trkpt lat="47.9954943" lon="17.6752307"><ele>113.0</ele><time>2026-05-02T16:11:01.065Z</time></trkpt><trkpt lat="47.9954459" lon="17.6754668"><ele>113.0</ele><time>2026-05-02T16:11:02.065Z</time></trkpt><trkpt lat="47.995398" lon="17.6757062"><ele>112.33333333333333</ele><time>2026-05-02T16:11:03.066Z</time></trkpt><trkpt lat="47.9953485" lon="17.6759428"><ele>111.66666666666666</ele><time>2026-05-02T16:11:04.065Z</time></trkpt><trkpt lat="47.9953019" lon="17.6761626"><ele>111.0</ele><time>2026-05-02T16:11:05.065Z</time></trkpt><trkpt lat="47.9952626" lon="17.6763792"><ele>111.0</ele><time>2026-05-02T16:11:06.065Z</time></trkpt><trkpt lat="47.9952257" lon="17.6765738"><ele>111.0</ele><time>2026-05-02T16:11:07.066Z</time></trkpt><trkpt lat="47.9951738" lon="17.676774"><ele>111.0</ele><time>2026-05-02T16:11:08.065Z</time></trkpt><trkpt lat="47.9951172" lon="17.6769684"><ele>111.0</ele><time>2026-05-02T16:11:09.065Z</time></trkpt><trkpt lat="47.9950576" lon="17.6771592"><ele>111.0</ele><time>2026-05-02T16:11:10.065Z</time></trkpt><trkpt lat="47.9949964" lon="17.6773488"><ele>111.0</ele><time>2026-05-02T16:11:11.065Z</time></trkpt><trkpt lat="47.994933" lon="17.6775423"><ele>111.0</ele><time>2026-05-02T16:11:12.065Z</time></trkpt><trkpt lat="47.9948637" lon="17.6777312"><ele>111.0</ele><time>2026-05-02T16:11:13.065Z</time></trkpt><trkpt lat="47.9947968" lon="17.6779266"><ele>111.0</ele><time>2026-05-02T16:11:14.066Z</time></trkpt><trkpt lat="47.9947313" lon="17.6781185"><ele>111.0</ele><time>2026-05-02T16:11:15.065Z</time></trkpt><trkpt lat="47.9946657" lon="17.6782996"><ele>111.0</ele><time>2026-05-02T16:11:16.065Z</time></trkpt><trkpt lat="47.994605" lon="17.6784592"><ele>111.0</ele><time>2026-05-02T16:11:17.065Z</time></trkpt><trkpt lat="47.9945533" lon="17.6785885"><ele>111.19999999999999</ele><time>2026-05-02T16:11:18.065Z</time></trkpt><trkpt lat="47.9945063" lon="17.6787054"><ele>111.39999999999999</ele><time>2026-05-02T16:11:19.065Z</time></trkpt><trkpt lat="47.9944635" lon="17.6788184"><ele>111.6</ele><time>2026-05-02T16:11:20.065Z</time></trkpt><trkpt lat="47.9944307" lon="17.6789442"><ele>111.8</ele><time>2026-05-02T16:11:21.065Z</time></trkpt><trkpt lat="47.9944162" lon="17.6791011"><ele>112.0</ele><time>2026-05-02T16:11:22.065Z</time></trkpt><trkpt lat="47.9944164" lon="17.6792771"><ele>111.75</ele><time>2026-05-02T16:11:23.065Z</time></trkpt><trkpt lat="47.9944233" lon="17.6794729"><ele>111.5</ele><time>2026-05-02T16:11:24.065Z</time></trkpt><trkpt lat="47.9944251" lon="17.6796863"><ele>111.25</ele><time>2026-05-02T16:11:25.065Z</time></trkpt><trkpt lat="47.9944282" lon="17.679908"><ele>111.0</ele><time>2026-05-02T16:11:26.065Z</time></trkpt><trkpt lat="47.9944275" lon="17.6801362"><ele>111.33333333333334</ele><time>2026-05-02T16:11:27.065Z</time></trkpt><trkpt lat="47.9944244" lon="17.680378"><ele>111.66666666666667</ele><time>2026-05-02T16:11:28.066Z</time></trkpt><trkpt lat="47.9944219" lon="17.6806308"><ele>112.0</ele><time>2026-05-02T16:11:29.066Z</time></trkpt><trkpt lat="47.9944195" lon="17.6809031"><ele>111.66666666666667</ele><time>2026-05-02T16:11:30.066Z</time></trkpt><trkpt lat="47.9944087" lon="17.6811854"><ele>111.33333333333334</ele><time>2026-05-02T16:11:31.065Z</time></trkpt><trkpt lat="47.9943954" lon="17.6814721"><ele>111.0</ele><time>2026-05-02T16:11:32.065Z</time></trkpt><trkpt lat="47.9943819" lon="17.6817586"><ele>111.33333333333334</ele><time>2026-05-02T16:11:33.065Z</time></trkpt><trkpt lat="47.9943649" lon="17.6820539"><ele>111.66666666666667</ele><time>2026-05-02T16:11:34.065Z</time></trkpt><trkpt lat="47.9943485" lon="17.6823568"><ele>112.0</ele><time>2026-05-02T16:11:35.065Z</time></trkpt><trkpt lat="47.9943403" lon="17.6826672"><ele>112.0</ele><time>2026-05-02T16:11:36.065Z</time></trkpt><trkpt lat="47.9943403" lon="17.6829839"><ele>112.0</ele><time>2026-05-02T16:11:37.065Z</time></trkpt><trkpt lat="47.9943491" lon="17.683306"><ele>112.0</ele><time>2026-05-02T16:11:38.066Z</time></trkpt><trkpt lat="47.9943719" lon="17.6836275"><ele>112.0</ele><time>2026-05-02T16:11:39.065Z</time></trkpt><trkpt lat="47.9944067" lon="17.6839441"><ele>112.0</ele><time>2026-05-02T16:11:40.066Z</time></trkpt><trkpt lat="47.9944577" lon="17.6842579"><ele>112.0</ele><time>2026-05-02T16:11:41.065Z</time></trkpt><trkpt lat="47.9945165" lon="17.6845651"><ele>112.0</ele><time>2026-05-02T16:11:42.065Z</time></trkpt><trkpt lat="47.9945765" lon="17.6848659"><ele>112.0</ele><time>2026-05-02T16:11:43.066Z</time></trkpt><trkpt lat="47.9946416" lon="17.6851492"><ele>112.0</ele><time>2026-05-02T16:11:44.065Z</time></trkpt><trkpt lat="47.9946931" lon="17.6854216"><ele>112.0</ele><time>2026-05-02T16:11:45.065Z</time></trkpt><trkpt lat="47.9947283" lon="17.6856947"><ele>112.0</ele><time>2026-05-02T16:11:46.065Z</time></trkpt><trkpt lat="47.9947282" lon="17.6859605"><ele>112.0</ele><time>2026-05-02T16:11:47.066Z</time></trkpt><trkpt lat="47.99469" lon="17.6862387"><ele>112.0</ele><time>2026-05-02T16:11:48.065Z</time></trkpt><trkpt lat="47.9946198" lon="17.6864986"><ele>112.0</ele><time>2026-05-02T16:11:49.066Z</time></trkpt><trkpt lat="47.9945206" lon="17.6867601"><ele>112.0</ele><time>2026-05-02T16:11:50.066Z</time></trkpt><trkpt lat="47.9944162" lon="17.6870066"><ele>111.66666666666667</ele><time>2026-05-02T16:11:51.066Z</time></trkpt><trkpt lat="47.994305" lon="17.6872559"><ele>111.33333333333334</ele><time>2026-05-02T16:11:52.066Z</time></trkpt><trkpt lat="47.9941911" lon="17.6875148"><ele>111.0</ele><time>2026-05-02T16:11:53.065Z</time></trkpt><trkpt lat="47.9940785" lon="17.6877779"><ele>111.0</ele><time>2026-05-02T16:11:54.065Z</time></trkpt><trkpt lat="47.9939644" lon="17.6880439"><ele>111.0</ele><time>2026-05-02T16:11:55.066Z</time></trkpt><trkpt lat="47.9938481" lon="17.688307"><ele>111.0</ele><time>2026-05-02T16:11:56.065Z</time></trkpt><trkpt lat="47.9937288" lon="17.6885641"><ele>111.0</ele><time>2026-05-02T16:11:57.065Z</time></trkpt><trkpt lat="47.9936059" lon="17.6888173"><ele>111.0</ele><time>2026-05-02T16:11:58.066Z</time></trkpt><trkpt lat="47.9934805" lon="17.6890579"><ele>111.0</ele><time>2026-05-02T16:11:59.065Z</time></trkpt><trkpt lat="47.9933552" lon="17.6892881"><ele>111.33333333333334</ele><time>2026-05-02T16:12:00.065Z</time></trkpt><trkpt lat="47.9932361" lon="17.689513"><ele>111.66666666666667</ele><time>2026-05-02T16:12:01.065Z</time></trkpt><trkpt lat="47.9931339" lon="17.6897426"><ele>112.0</ele><time>2026-05-02T16:12:02.065Z</time></trkpt><trkpt lat="47.9930535" lon="17.6899785"><ele>112.0</ele><time>2026-05-02T16:12:03.065Z</time></trkpt><trkpt lat="47.993" lon="17.6902239"><ele>112.0</ele><time>2026-05-02T16:12:04.065Z</time></trkpt><trkpt lat="47.9929649" lon="17.6904736"><ele>112.0</ele><time>2026-05-02T16:12:05.065Z</time></trkpt><trkpt lat="47.9929444" lon="17.6907231"><ele>112.33333333333334</ele><time>2026-05-02T16:12:06.066Z</time></trkpt><trkpt lat="47.9929395" lon="17.690969"><ele>112.66666666666666</ele><time>2026-05-02T16:12:07.065Z</time></trkpt><trkpt lat="47.9929432" lon="17.6912077"><ele>113.0</ele><time>2026-05-02T16:12:08.065Z</time></trkpt><trkpt lat="47.9929478" lon="17.6914387"><ele>113.25</ele><time>2026-05-02T16:12:09.065Z</time></trkpt><trkpt lat="47.9929546" lon="17.6916578"><ele>113.5</ele><time>2026-05-02T16:12:10.066Z</time></trkpt><trkpt lat="47.9929582" lon="17.6918721"><ele>113.75</ele><time>2026-05-02T16:12:11.066Z</time></trkpt><trkpt lat="47.9929466" lon="17.6920827"><ele>114.0</ele><time>2026-05-02T16:12:12.066Z</time></trkpt><trkpt lat="47.99292" lon="17.6922861"><ele>113.25</ele><time>2026-05-02T16:12:13.065Z</time></trkpt><trkpt lat="47.9928848" lon="17.692483"><ele>112.5</ele><time>2026-05-02T16:12:14.065Z</time></trkpt><trkpt lat="47.9928317" lon="17.6926673"><ele>111.75</ele><time>2026-05-02T16:12:15.065Z</time></trkpt><trkpt lat="47.9927706" lon="17.6928374"><ele>111.0</ele><time>2026-05-02T16:12:16.065Z</time></trkpt><trkpt lat="47.9926971" lon="17.6929983"><ele>110.75</ele><time>2026-05-02T16:12:17.065Z</time></trkpt><trkpt lat="47.9926116" lon="17.6931547"><ele>110.5</ele><time>2026-05-02T16:12:18.065Z</time></trkpt><trkpt lat="47.9925266" lon="17.6933041"><ele>110.25</ele><time>2026-05-02T16:12:19.065Z</time></trkpt><trkpt lat="47.9924391" lon="17.693456"><ele>110.0</ele><time>2026-05-02T16:12:20.066Z</time></trkpt><trkpt lat="47.9923532" lon="17.693604"><ele>110.5</ele><time>2026-05-02T16:12:21.066Z</time></trkpt><trkpt lat="47.9922671" lon="17.6937471"><ele>111.0</ele><time>2026-05-02T16:12:22.066Z</time></trkpt><trkpt lat="47.9921764" lon="17.6938905"><ele>111.5</ele><time>2026-05-02T16:12:23.066Z</time></trkpt><trkpt lat="47.9920854" lon="17.6940367"><ele>112.0</ele><time>2026-05-02T16:12:24.065Z</time></trkpt><trkpt lat="47.9919905" lon="17.6941818"><ele>112.0</ele><time>2026-05-02T16:12:25.065Z</time></trkpt><trkpt lat="47.9918923" lon="17.6943297"><ele>112.0</ele><time>2026-05-02T16:12:26.066Z</time></trkpt><trkpt lat="47.9917945" lon="17.694475"><ele>112.0</ele><time>2026-05-02T16:12:27.066Z</time></trkpt><trkpt lat="47.9916953" lon="17.6946257"><ele>112.0</ele><time>2026-05-02T16:12:28.065Z</time></trkpt><trkpt lat="47.9915957" lon="17.6947737"><ele>112.25</ele><time>2026-05-02T16:12:29.065Z</time></trkpt><trkpt lat="47.9914935" lon="17.6949197"><ele>112.5</ele><time>2026-05-02T16:12:30.066Z</time></trkpt><trkpt lat="47.9913906" lon="17.695064"><ele>112.75</ele><time>2026-05-02T16:12:31.066Z</time></trkpt><trkpt lat="47.9912882" lon="17.6952054"><ele>113.0</ele><time>2026-05-02T16:12:32.066Z</time></trkpt><trkpt lat="47.9911821" lon="17.695343"><ele>113.0</ele><time>2026-05-02T16:12:33.066Z</time></trkpt><trkpt lat="47.9910755" lon="17.6954827"><ele>113.0</ele><time>2026-05-02T16:12:34.065Z</time></trkpt><trkpt lat="47.9909714" lon="17.6956163"><ele>113.0</ele><time>2026-05-02T16:12:35.065Z</time></trkpt><trkpt lat="47.9908657" lon="17.6957515"><ele>113.0</ele><time>2026-05-02T16:12:36.066Z</time></trkpt><trkpt lat="47.9907613" lon="17.6958894"><ele>112.75</ele><time>2026-05-02T16:12:37.065Z</time></trkpt><trkpt lat="47.990657" lon="17.6960287"><ele>112.5</ele><time>2026-05-02T16:12:38.066Z</time></trkpt><trkpt lat="47.9905504" lon="17.6961668"><ele>112.25</ele><time>2026-05-02T16:12:39.066Z</time></trkpt><trkpt lat="47.9904441" lon="17.6963038"><ele>112.0</ele><time>2026-05-02T16:12:40.065Z</time></trkpt><trkpt lat="47.9903432" lon="17.6964457"><ele>112.0</ele><time>2026-05-02T16:12:41.066Z</time></trkpt><trkpt lat="47.9902473" lon="17.6965895"><ele>112.0</ele><time>2026-05-02T16:12:42.066Z</time></trkpt><trkpt lat="47.9901497" lon="17.6967384"><ele>112.0</ele><time>2026-05-02T16:12:43.065Z</time></trkpt><trkpt lat="47.9900557" lon="17.6968951"><ele>112.0</ele><time>2026-05-02T16:12:44.065Z</time></trkpt><trkpt lat="47.9899614" lon="17.6970512"><ele>111.75</ele><time>2026-05-02T16:12:45.066Z</time></trkpt><trkpt lat="47.9898713" lon="17.6972056"><ele>111.5</ele><time>2026-05-02T16:12:46.066Z</time></trkpt><trkpt lat="47.9897904" lon="17.6973626"><ele>111.25</ele><time>2026-05-02T16:12:47.065Z</time></trkpt><trkpt lat="47.9897159" lon="17.6975177"><ele>111.0</ele><time>2026-05-02T16:12:48.065Z</time></trkpt><trkpt lat="47.9896507" lon="17.6976747"><ele>111.19999999999999</ele><time>2026-05-02T16:12:49.065Z</time></trkpt><trkpt lat="47.9896019" lon="17.6978289"><ele>111.39999999999999</ele><time>2026-05-02T16:12:50.065Z</time></trkpt><trkpt lat="47.9895672" lon="17.6979812"><ele>111.6</ele><time>2026-05-02T16:12:51.066Z</time></trkpt><trkpt lat="47.9895453" lon="17.6981403"><ele>111.8</ele><time>2026-05-02T16:12:52.065Z</time></trkpt><trkpt lat="47.9895276" lon="17.6983025"><ele>112.0</ele><time>2026-05-02T16:12:53.065Z</time></trkpt><trkpt lat="47.9895158" lon="17.6984682"><ele>112.0</ele><time>2026-05-02T16:12:54.065Z</time></trkpt><trkpt lat="47.9895083" lon="17.6986396"><ele>112.0</ele><time>2026-05-02T16:12:55.066Z</time></trkpt><trkpt lat="47.9895074" lon="17.6988222"><ele>112.0</ele><time>2026-05-02T16:12:56.065Z</time></trkpt><trkpt lat="47.989511" lon="17.6990077"><ele>112.0</ele><time>2026-05-02T16:12:57.065Z</time></trkpt><trkpt lat="47.9895279" lon="17.6992021"><ele>112.0</ele><time>2026-05-02T16:12:58.066Z</time></trkpt><trkpt lat="47.9895496" lon="17.6993938"><ele>112.0</ele><time>2026-05-02T16:12:59.066Z</time></trkpt><trkpt lat="47.9895792" lon="17.6995928"><ele>112.0</ele><time>2026-05-02T16:13:00.065Z</time></trkpt><trkpt lat="47.9896118" lon="17.6997824"><ele>112.0</ele><time>2026-05-02T16:13:01.065Z</time></trkpt><trkpt lat="47.9896423" lon="17.6999635"><ele>112.0</ele><time>2026-05-02T16:13:02.065Z</time></trkpt><trkpt lat="47.9896708" lon="17.7001275"><ele>111.99999999999999</ele><time>2026-05-02T16:13:03.066Z</time></trkpt><trkpt lat="47.9896917" lon="17.7002753"><ele>111.99999999999999</ele><time>2026-05-02T16:13:04.066Z</time></trkpt><trkpt lat="47.9897082" lon="17.700407"><ele>112.0</ele><time>2026-05-02T16:13:05.065Z</time></trkpt><trkpt lat="47.9897152" lon="17.7005298"><ele>112.0</ele><time>2026-05-02T16:13:06.065Z</time></trkpt><trkpt lat="47.9897306" lon="17.7006362"><ele>112.0</ele><time>2026-05-02T16:13:07.065Z</time></trkpt><trkpt lat="47.989819" lon="17.7007582"><ele>111.99999999999999</ele><time>2026-05-02T16:13:09.065Z</time></trkpt><trkpt lat="47.9898915" lon="17.7007642"><ele>111.99999999999999</ele><time>2026-05-02T16:13:10.065Z</time></trkpt><trkpt lat="47.9899747" lon="17.7007606"><ele>112.0</ele><time>2026-05-02T16:13:11.065Z</time></trkpt><trkpt lat="47.9900583" lon="17.7007588"><ele>112.0</ele><time>2026-05-02T16:13:12.065Z</time></trkpt><trkpt lat="47.9901505" lon="17.7007704"><ele>111.83333333333334</ele><time>2026-05-02T16:13:13.065Z</time></trkpt><trkpt lat="47.9902469" lon="17.7008116"><ele>111.66666666666667</ele><time>2026-05-02T16:13:14.065Z</time></trkpt><trkpt lat="47.9903327" lon="17.7008708"><ele>111.5</ele><time>2026-05-02T16:13:15.065Z</time></trkpt><trkpt lat="47.9904056" lon="17.7009359"><ele>111.33333333333334</ele><time>2026-05-02T16:13:16.066Z</time></trkpt><trkpt lat="47.9904759" lon="17.7010026"><ele>111.16666666666667</ele><time>2026-05-02T16:13:17.065Z</time></trkpt><trkpt lat="47.9905386" lon="17.7010667"><ele>111.0</ele><time>2026-05-02T16:13:18.065Z</time></trkpt><trkpt lat="47.9905985" lon="17.7011278"><ele>113.0</ele><time>2026-05-02T16:13:19.065Z</time></trkpt><trkpt lat="47.9906928" lon="17.7012281"><ele>113.0</ele><time>2026-05-02T16:13:21.065Z</time></trkpt><trkpt lat="47.9907164" lon="17.7013225"><ele>113.0</ele><time>2026-05-02T16:13:23.065Z</time></trkpt><trkpt lat="47.9906693" lon="17.7014041"><ele>113.0</ele><time>2026-05-02T16:13:27.065Z</time></trkpt></trkseg></trk></gpx>